Time;durP1;ratioP1;P1;durP2;ratioP2;P2;SDS_P1;SDS_P2;PMS_P1;PMS_P2;Temp;Humidity;BMP_temperature;BMP_pressure;BME280_temperature;BME280_humidity;BME280_pressure;Samples;Min_cycle;Max_cycle;Signal;HPM_P1;HPM_P2
2022/02/20 00:02:11;;;;;;;90.03;85.67;;;5.40;99.90;;;;;;4414191;32;20186;-62
2022/02/20 00:04:40;;;;;;;99.97;95.50;;;5.30;99.90;;;;;;4413947;32;20590;-61
2022/02/20 00:07:07;;;;;;;96.37;92.07;;;5.30;99.90;;;;;;4415665;32;20173;-61
2022/02/20 00:09:36;;;;;;;94.63;90.37;;;5.30;99.90;;;;;;4413820;32;20186;-62
2022/02/20 00:12:03;;;;;;;100.40;96.10;;;5.30;99.90;;;;;;4417128;32;20631;-61
2022/02/20 00:14:29;;;;;;;97.97;93.70;;;5.20;99.90;;;;;;4415196;32;20250;-61
2022/02/20 00:16:57;;;;;;;90.70;86.47;;;5.40;99.90;;;;;;4415431;32;20254;-61
2022/02/20 00:19:24;;;;;;;96.40;91.90;;;5.20;99.90;;;;;;4414133;32;20183;-62
2022/02/20 00:21:51;;;;;;;92.67;88.40;;;5.20;99.90;;;;;;4414938;32;20183;-61
2022/02/20 00:24:18;;;;;;;96.20;91.50;;;5.20;99.90;;;;;;4417619;32;20159;-61
2022/02/20 00:26:45;;;;;;;94.17;90.00;;;5.20;99.90;;;;;;4412593;32;20219;-62
2022/02/20 00:29:12;;;;;;;91.77;87.57;;;5.20;99.90;;;;;;4417509;32;20165;-64
2022/02/20 00:31:39;;;;;;;94.43;90.03;;;5.20;99.90;;;;;;4411808;32;20475;-62
2022/02/20 00:34:07;;;;;;;96.13;91.73;;;5.20;99.90;;;;;;4415164;32;20171;-64
2022/02/20 00:36:33;;;;;;;102.33;97.63;;;5.20;99.90;;;;;;4415074;32;20239;-62
2022/02/20 00:39:00;;;;;;;100.10;95.43;;;5.30;99.90;;;;;;4416016;32;20251;-61
2022/02/20 00:41:27;;;;;;;108.30;103.60;;;5.20;99.90;;;;;;4416467;32;20185;-61
2022/02/20 00:43:54;;;;;;;92.87;88.23;;;5.20;99.90;;;;;;4411806;32;20266;-63
2022/02/20 00:46:21;;;;;;;94.17;90.13;;;5.20;99.90;;;;;;4414025;32;20195;-61
2022/02/20 00:48:48;;;;;;;96.73;92.40;;;5.10;99.90;;;;;;4419447;32;20210;-61
2022/02/20 00:51:16;;;;;;;96.73;92.57;;;5.10;99.90;;;;;;4415410;32;20151;-60
2022/02/20 00:53:43;;;;;;;91.30;87.33;;;5.10;99.90;;;;;;4415693;32;20178;-62
2022/02/20 00:56:09;;;;;;;95.63;91.53;;;5.10;99.90;;;;;;4420730;32;20198;-61
2022/02/20 00:58:36;;;;;;;96.80;92.10;;;5.10;99.90;;;;;;4416015;32;20171;-61
2022/02/20 01:01:04;;;;;;;105.27;100.87;;;5.10;99.90;;;;;;4416033;32;20233;-60
2022/02/20 01:03:31;;;;;;;103.43;98.80;;;5.10;99.90;;;;;;4416168;32;20531;-60
2022/02/20 01:05:57;;;;;;;100.07;95.87;;;5.10;99.90;;;;;;4411801;32;20557;-60
2022/02/20 01:08:25;;;;;;;98.53;94.23;;;5.10;99.90;;;;;;4413166;32;20211;-62
2022/02/20 01:10:52;;;;;;;93.50;89.00;;;5.10;99.90;;;;;;4416319;32;20218;-61
2022/02/20 01:13:19;;;;;;;110.97;106.37;;;5.10;99.90;;;;;;4414518;32;20205;-62
2022/02/20 01:15:46;;;;;;;100.47;95.67;;;5.10;99.90;;;;;;4415664;32;20171;-62
2022/02/20 01:18:13;;;;;;;102.00;97.37;;;5.20;99.90;;;;;;4413247;32;20207;-62
2022/02/20 01:20:40;;;;;;;96.00;91.87;;;5.20;99.90;;;;;;4414247;32;20191;-61
2022/02/20 01:23:07;;;;;;;102.17;97.53;;;5.20;99.90;;;;;;4414381;32;20174;-62
2022/02/20 01:25:35;;;;;;;101.90;97.37;;;5.20;99.90;;;;;;4413767;32;20619;-62
2022/02/20 01:28:02;;;;;;;107.13;102.60;;;5.30;99.90;;;;;;4412494;32;20600;-61
2022/02/20 01:30:29;;;;;;;104.30;99.50;;;5.30;99.90;;;;;;4416924;32;20178;-61
2022/02/20 01:32:56;;;;;;;94.87;91.00;;;5.30;99.90;;;;;;4413070;32;20170;-61
2022/02/20 01:35:23;;;;;;;107.10;102.57;;;5.30;99.90;;;;;;4413456;32;20211;-61
2022/02/20 01:37:50;;;;;;;98.73;94.53;;;5.30;99.90;;;;;;4413707;32;20226;-62
2022/02/20 01:40:17;;;;;;;94.40;90.30;;;5.30;99.90;;;;;;4412399;32;20186;-62
2022/02/20 01:42:45;;;;;;;109.20;104.07;;;5.30;99.90;;;;;;4411439;32;20155;-62
2022/02/20 01:45:15;;;;;;;96.70;92.53;;;5.30;99.90;;;;;;4413298;32;20174;-62
2022/02/20 01:47:42;;;;;;;102.13;97.87;;;5.40;99.90;;;;;;4415780;32;20485;-62
2022/02/20 01:50:10;;;;;;;103.43;99.20;;;5.30;99.90;;;;;;4411510;32;20223;-62
2022/02/20 01:52:38;;;;;;;101.50;97.33;;;5.30;99.90;;;;;;4412794;32;20179;-62
2022/02/20 01:55:08;;;;;;;104.80;100.50;;;5.30;99.90;;;;;;4413229;32;20542;-62
2022/02/20 01:57:36;;;;;;;97.00;93.13;;;5.30;99.90;;;;;;4415605;32;20258;-62
2022/02/20 02:00:07;;;;;;;112.10;107.27;;;5.30;99.90;;;;;;4411525;32;20178;-61
2022/02/20 02:02:34;;;;;;;108.43;103.87;;;5.40;99.90;;;;;;4418731;32;20211;-61
2022/02/20 02:05:01;;;;;;;111.10;106.70;;;5.40;99.90;;;;;;4415442;32;20144;-61
2022/02/20 02:07:28;;;;;;;98.97;94.57;;;5.40;99.90;;;;;;4416966;32;20195;-62
2022/02/20 02:09:55;;;;;;;104.80;100.27;;;5.40;99.90;;;;;;4412591;32;20304;-61
2022/02/20 02:12:22;;;;;;;100.10;95.80;;;5.30;99.90;;;;;;4412078;32;20152;-61
2022/02/20 02:14:53;;;;;;;107.57;103.00;;;5.30;99.90;;;;;;4410158;32;20177;-62
2022/02/20 02:17:23;;;;;;;100.10;96.07;;;5.30;99.90;;;;;;4414790;32;20634;-61
2022/02/20 02:19:51;;;;;;;95.57;91.27;;;5.30;99.90;;;;;;4411694;32;20163;-60
2022/02/20 02:22:19;;;;;;;104.27;99.47;;;5.30;99.90;;;;;;4411817;32;20171;-61
2022/02/20 02:24:47;;;;;;;108.67;104.10;;;5.30;99.90;;;;;;4410848;32;20215;-62
2022/02/20 02:27:15;;;;;;;100.60;96.10;;;5.40;99.90;;;;;;4416074;32;20175;-62
2022/02/20 02:29:43;;;;;;;94.13;90.20;;;5.30;99.90;;;;;;4414933;32;20151;-62
2022/02/20 02:32:10;;;;;;;102.97;98.47;;;5.30;99.90;;;;;;4414474;32;20172;-62
2022/02/20 02:34:37;;;;;;;108.27;103.67;;;5.30;99.90;;;;;;4414022;32;20179;-61
2022/02/20 02:37:04;;;;;;;105.13;100.80;;;5.40;99.90;;;;;;4413371;32;20219;-62
2022/02/20 02:39:32;;;;;;;108.57;103.83;;;5.40;99.90;;;;;;4411462;32;20627;-61
2022/02/20 02:42:00;;;;;;;105.53;101.13;;;5.40;99.90;;;;;;4413210;32;20159;-61
2022/02/20 02:44:27;;;;;;;102.73;98.37;;;5.50;99.90;;;;;;4413980;32;20203;-61
2022/02/20 02:46:54;;;;;;;106.87;102.47;;;5.40;99.90;;;;;;4413418;32;20223;-62
2022/02/20 02:49:20;;;;;;;106.53;101.93;;;5.40;99.90;;;;;;4413317;32;20216;-61
2022/02/20 02:51:47;;;;;;;107.27;102.17;;;5.40;99.90;;;;;;4410708;32;20172;-62
2022/02/20 02:54:17;;;;;;;103.73;99.40;;;5.50;99.90;;;;;;4413209;32;20183;-62
2022/02/20 02:56:46;;;;;;;103.07;98.67;;;5.40;99.90;;;;;;4412193;32;20575;-61
2022/02/20 02:59:15;;;;;;;103.00;98.83;;;5.50;99.90;;;;;;4413160;32;20147;-61
2022/02/20 03:01:43;;;;;;;100.30;96.03;;;5.40;99.90;;;;;;4414537;32;20222;-61
2022/02/20 03:04:10;;;;;;;100.10;96.07;;;5.40;99.90;;;;;;4414924;32;20183;-62
2022/02/20 03:06:37;;;;;;;108.50;103.87;;;5.40;99.90;;;;;;4415564;32;20663;-61
2022/02/20 03:09:06;;;;;;;111.93;106.83;;;5.40;99.90;;;;;;4415735;32;20213;-61
2022/02/20 03:11:33;;;;;;;103.13;98.73;;;5.40;99.90;;;;;;4414505;32;20201;-61
2022/02/20 03:14:01;;;;;;;126.80;121.50;;;5.50;99.90;;;;;;4414591;32;20169;-62
2022/02/20 03:16:29;;;;;;;115.33;110.23;;;5.50;99.90;;;;;;4415461;32;20208;-62
2022/02/20 03:18:55;;;;;;;104.93;100.33;;;5.40;99.90;;;;;;4417140;32;20233;-62
2022/02/20 03:21:22;;;;;;;109.90;105.33;;;5.40;99.90;;;;;;4414526;32;20614;-62
2022/02/20 03:23:49;;;;;;;119.87;114.50;;;5.40;99.90;;;;;;4417257;32;20215;-62
2022/02/20 03:26:22;;;;;;;119.03;114.00;;;5.40;99.90;;;;;;4417632;32;20188;-62
2022/02/20 03:28:49;;;;;;;115.80;110.70;;;5.40;99.90;;;;;;4416341;32;20189;-62
2022/02/20 03:31:17;;;;;;;110.93;106.20;;;5.40;99.90;;;;;;4415799;32;20226;-62
2022/02/20 03:33:44;;;;;;;99.50;95.33;;;5.30;99.90;;;;;;4415660;32;20163;-62
2022/02/20 03:36:11;;;;;;;109.43;104.50;;;5.30;99.90;;;;;;4415832;32;20238;-62
2022/02/20 03:38:39;;;;;;;101.07;96.97;;;5.30;99.90;;;;;;4416738;32;20460;-62
2022/02/20 03:41:06;;;;;;;119.27;114.00;;;5.30;99.90;;;;;;4413782;32;20252;-62
2022/02/20 03:43:33;;;;;;;113.83;108.77;;;5.40;99.90;;;;;;4415457;32;20170;-62
2022/02/20 03:45:59;;;;;;;110.23;105.27;;;5.30;99.90;;;;;;4414184;32;20155;-62
2022/02/20 03:48:28;;;;;;;108.10;103.53;;;5.30;99.90;;;;;;4414315;32;20263;-62
2022/02/20 03:50:55;;;;;;;111.53;106.27;;;5.30;99.90;;;;;;4418627;32;20207;-62
2022/02/20 03:53:23;;;;;;;112.27;107.07;;;5.30;99.90;;;;;;4415159;32;20202;-62
2022/02/20 03:55:50;;;;;;;114.17;108.87;;;5.20;99.90;;;;;;4415455;32;20538;-62
2022/02/20 03:58:17;;;;;;;109.57;104.80;;;5.20;99.90;;;;;;4414996;32;20175;-62
2022/02/20 04:00:44;;;;;;;102.60;97.63;;;5.10;99.90;;;;;;4416083;32;20191;-62
2022/02/20 04:03:11;;;;;;;110.90;106.07;;;5.10;99.90;;;;;;4413569;32;20247;-61
2022/02/20 04:05:39;;;;;;;113.03;107.93;;;5.10;99.90;;;;;;4416355;32;20174;-61
2022/02/20 04:08:06;;;;;;;102.10;97.43;;;5.10;99.90;;;;;;4414662;32;20245;-62
2022/02/20 04:10:34;;;;;;;108.07;103.10;;;5.00;99.90;;;;;;4413332;32;20167;-62
2022/02/20 04:13:00;;;;;;;103.37;98.83;;;5.00;99.90;;;;;;4414225;32;20832;-62
2022/02/20 04:15:27;;;;;;;102.03;97.60;;;5.00;99.90;;;;;;4415015;32;20182;-62
2022/02/20 04:17:54;;;;;;;97.33;92.43;;;5.00;99.90;;;;;;4412927;32;20178;-62
2022/02/20 04:20:24;;;;;;;111.80;106.40;;;5.00;99.90;;;;;;4415472;32;20614;-61
2022/02/20 04:22:52;;;;;;;106.53;101.50;;;5.00;99.90;;;;;;4421014;32;20183;-62
2022/02/20 04:25:19;;;;;;;99.43;95.03;;;5.10;99.90;;;;;;4409230;32;20148;-62
2022/02/20 04:27:46;;;;;;;109.20;104.40;;;5.10;99.90;;;;;;4415855;32;20556;-62
2022/02/20 04:30:16;;;;;;;116.37;110.43;;;5.10;99.90;;;;;;4413590;32;20290;-62
2022/02/20 04:32:43;;;;;;;111.50;106.10;;;5.10;99.90;;;;;;4413591;32;20159;-61
2022/02/20 04:35:10;;;;;;;109.07;104.07;;;5.10;99.90;;;;;;4414067;32;20204;-61
2022/02/20 04:37:37;;;;;;;106.87;101.93;;;5.00;99.90;;;;;;4413957;32;20614;-61
2022/02/20 04:40:07;;;;;;;106.27;101.70;;;4.90;99.90;;;;;;4415897;32;20174;-61
2022/02/20 04:42:33;;;;;;;108.03;103.13;;;4.90;99.90;;;;;;4413327;32;20207;-61
2022/02/20 04:45:00;;;;;;;102.10;97.67;;;4.90;99.90;;;;;;4415812;32;20177;-62
2022/02/20 04:47:28;;;;;;;109.60;104.70;;;4.80;99.90;;;;;;4413046;32;20206;-62
2022/02/20 04:49:55;;;;;;;108.00;102.77;;;4.80;99.90;;;;;;4413569;32;20659;-62
2022/02/20 04:52:21;;;;;;;109.13;103.63;;;4.80;99.90;;;;;;4415358;32;20178;-62
2022/02/20 04:54:48;;;;;;;111.67;106.10;;;4.90;99.90;;;;;;4414190;32;20172;-62
2022/02/20 04:57:16;;;;;;;104.90;99.40;;;4.80;99.90;;;;;;4414660;32;20156;-62
2022/02/20 04:59:43;;;;;;;106.90;101.27;;;4.70;99.90;;;;;;4412839;32;20161;-62
2022/02/20 05:02:10;;;;;;;110.57;105.17;;;4.70;99.90;;;;;;4413948;32;20183;-62
2022/02/20 05:04:37;;;;;;;106.97;101.73;;;4.70;99.90;;;;;;4413843;32;20175;-61
2022/02/20 05:07:07;;;;;;;114.70;109.13;;;4.70;99.90;;;;;;4413939;32;20151;-62
2022/02/20 05:09:33;;;;;;;120.10;113.93;;;4.70;99.90;;;;;;4411429;32;20156;-61
2022/02/20 05:12:00;;;;;;;111.80;106.07;;;4.60;99.90;;;;;;4416943;32;20164;-61
2022/02/20 05:14:28;;;;;;;113.17;107.33;;;4.70;99.90;;;;;;4414760;32;20215;-61
2022/02/20 05:16:55;;;;;;;119.03;113.23;;;4.70;99.90;;;;;;4414852;32;20214;-61
2022/02/20 05:19:23;;;;;;;122.37;115.67;;;4.70;99.90;;;;;;4415260;32;20164;-62
2022/02/20 05:21:50;;;;;;;118.10;112.10;;;4.70;99.90;;;;;;4416154;32;20229;-61
2022/02/20 05:24:17;;;;;;;122.60;116.17;;;4.70;99.90;;;;;;4414569;32;20190;-61
2022/02/20 05:26:45;;;;;;;119.20;113.00;;;4.70;99.90;;;;;;4414413;32;20158;-61
2022/02/20 05:29:11;;;;;;;120.17;113.50;;;4.70;99.90;;;;;;4414008;32;20175;-61
2022/02/20 05:31:40;;;;;;;126.13;119.10;;;4.70;99.90;;;;;;4412678;32;20190;-62
2022/02/20 05:34:07;;;;;;;125.50;118.83;;;4.70;99.90;;;;;;4413390;32;20151;-62
2022/02/20 05:36:34;;;;;;;123.70;117.00;;;4.70;99.90;;;;;;4411618;32;20167;-61
2022/02/20 05:39:01;;;;;;;125.50;118.47;;;4.70;99.90;;;;;;4413862;32;20662;-61
2022/02/20 05:41:28;;;;;;;131.77;124.93;;;4.80;99.90;;;;;;4415136;32;20646;-61
2022/02/20 05:43:54;;;;;;;123.03;116.23;;;4.80;99.90;;;;;;4410647;32;20178;-61
2022/02/20 05:46:21;;;;;;;129.67;122.40;;;4.80;99.90;;;;;;4413525;32;20247;-61
2022/02/20 05:48:49;;;;;;;138.57;130.00;;;4.80;99.90;;;;;;4411737;32;20271;-61
2022/02/20 05:51:16;;;;;;;131.23;123.47;;;4.80;99.90;;;;;;4413181;32;20606;-61
2022/02/20 05:53:43;;;;;;;135.73;128.20;;;4.80;99.90;;;;;;4417006;32;20155;-61
2022/02/20 05:56:10;;;;;;;137.37;130.30;;;4.80;99.90;;;;;;4412410;32;20444;-61
2022/02/20 05:58:37;;;;;;;139.20;131.97;;;4.90;99.90;;;;;;4414903;32;20219;-61
2022/02/20 06:01:04;;;;;;;135.47;128.23;;;5.00;99.90;;;;;;4414114;32;20208;-61
2022/02/20 06:03:31;;;;;;;152.83;144.20;;;5.00;99.90;;;;;;4414592;32;20279;-61
2022/02/20 06:05:59;;;;;;;156.53;147.23;;;5.00;99.90;;;;;;4413959;32;20165;-61
2022/02/20 06:08:26;;;;;;;155.73;147.33;;;5.10;99.90;;;;;;4412601;32;20186;-61
2022/02/20 06:10:53;;;;;;;155.20;146.47;;;5.10;99.90;;;;;;4411415;32;20171;-61
2022/02/20 06:13:20;;;;;;;168.97;159.60;;;5.10;99.90;;;;;;4415794;32;20199;-62
2022/02/20 06:15:50;;;;;;;173.47;163.80;;;5.10;99.90;;;;;;4414394;32;20143;-61
2022/02/20 06:18:16;;;;;;;168.03;159.00;;;5.20;99.90;;;;;;4410291;32;20584;-61
2022/02/20 06:20:43;;;;;;;179.67;170.20;;;5.30;99.90;;;;;;4413400;32;20256;-61
2022/02/20 06:23:11;;;;;;;194.70;183.70;;;5.30;99.90;;;;;;4413677;32;20545;-61
2022/02/20 06:25:38;;;;;;;191.03;180.70;;;5.40;99.90;;;;;;4414611;32;20177;-61
2022/02/20 06:28:05;;;;;;;195.77;185.87;;;5.40;99.90;;;;;;4414316;32;20155;-61
2022/02/20 06:30:32;;;;;;;198.43;188.40;;;5.50;99.90;;;;;;4410805;32;20191;-61
2022/02/20 06:32:59;;;;;;;201.43;191.03;;;5.50;99.90;;;;;;4413856;32;20168;-61
2022/02/20 06:35:26;;;;;;;193.17;183.13;;;5.60;99.90;;;;;;4414305;32;20156;-61
2022/02/20 06:37:53;;;;;;;210.57;200.10;;;5.70;99.90;;;;;;4416181;32;20496;-61
2022/02/20 06:40:24;;;;;;;217.77;206.90;;;5.70;99.90;;;;;;4417716;32;20210;-61
2022/02/20 06:42:51;;;;;;;228.10;216.40;;;5.80;99.90;;;;;;4415413;32;20179;-62
2022/02/20 06:45:18;;;;;;;228.37;216.83;;;5.90;99.90;;;;;;4415531;32;20203;-62
2022/02/20 06:47:44;;;;;;;235.17;223.73;;;6.00;99.90;;;;;;4420383;32;20178;-62
2022/02/20 06:50:11;;;;;;;235.20;223.43;;;6.10;99.90;;;;;;4420205;32;20199;-62
2022/02/20 06:52:38;;;;;;;236.77;225.30;;;6.20;99.90;;;;;;4418575;32;20623;-63
2022/02/20 06:55:06;;;;;;;262.20;249.70;;;6.30;99.90;;;;;;4413144;32;20559;-62
2022/02/20 06:57:36;;;;;;;251.37;239.33;;;6.30;99.90;;;;;;4416038;32;20148;-62
2022/02/20 07:00:07;;;;;;;248.50;237.37;;;6.40;99.90;;;;;;4415974;32;20380;-62
2022/02/20 07:02:34;;;;;;;271.87;259.20;;;6.50;99.90;;;;;;4412833;32;20152;-62
2022/02/20 07:05:01;;;;;;;284.07;270.67;;;6.50;99.90;;;;;;4410437;32;20238;-61
2022/02/20 07:07:28;;;;;;;288.07;274.50;;;6.50;99.90;;;;;;4415036;32;20160;-62
2022/02/20 07:09:54;;;;;;;289.90;275.80;;;6.60;99.90;;;;;;4420101;32;20301;-61
2022/02/20 07:12:21;;;;;;;307.03;292.87;;;6.60;99.90;;;;;;4418041;32;20183;-62
2022/02/20 07:14:49;;;;;;;301.93;288.10;;;6.70;99.90;;;;;;4416789;32;20185;-62
2022/02/20 07:17:16;;;;;;;311.83;297.23;;;6.80;99.90;;;;;;4413257;32;20216;-62
2022/02/20 07:19:43;;;;;;;313.97;299.77;;;6.90;99.90;;;;;;4415887;32;20199;-63
2022/02/20 07:22:10;;;;;;;317.50;302.20;;;6.90;99.90;;;;;;4415991;32;20179;-61
2022/02/20 07:24:38;;;;;;;326.00;310.70;;;6.90;99.90;;;;;;4417924;32;20189;-61
2022/02/20 07:27:05;;;;;;;337.67;322.30;;;7.10;99.90;;;;;;4419035;32;20151;-62
2022/02/20 07:29:32;;;;;;;328.07;313.00;;;7.10;99.90;;;;;;4423019;32;20234;-63
2022/02/20 07:32:00;;;;;;;322.33;307.60;;;7.20;99.90;;;;;;4415554;32;20163;-63
2022/02/20 07:34:27;;;;;;;328.47;312.40;;;7.40;99.90;;;;;;4414539;32;20228;-62
2022/02/20 07:36:54;;;;;;;360.40;343.73;;;7.50;99.90;;;;;;4413916;32;20207;-62
2022/02/20 07:39:21;;;;;;;364.60;347.73;;;7.60;99.90;;;;;;4411995;32;20186;-62
2022/02/20 07:41:48;;;;;;;359.80;342.87;;;7.70;99.90;;;;;;4415237;32;20178;-62
2022/02/20 07:44:15;;;;;;;383.77;365.87;;;7.80;99.90;;;;;;4414890;32;20207;-61
2022/02/20 07:46:41;;;;;;;393.17;374.90;;;8.00;99.90;;;;;;4415736;32;20338;-62
2022/02/20 07:49:10;;;;;;;383.83;365.03;;;8.00;99.90;;;;;;4410813;32;20538;-62
2022/02/20 07:51:36;;;;;;;406.00;387.33;;;8.10;99.90;;;;;;4413372;32;20170;-62
2022/02/20 07:54:03;;;;;;;414.80;395.20;;;8.20;99.90;;;;;;4410300;32;20613;-63
2022/02/20 07:56:30;;;;;;;414.13;394.43;;;8.20;99.90;;;;;;4412847;32;20182;-62
2022/02/20 07:58:57;;;;;;;405.60;386.83;;;8.30;99.90;;;;;;4411348;32;20208;-62
2022/02/20 08:01:24;;;;;;;412.77;393.27;;;8.40;99.90;;;;;;4413000;32;20186;-61
2022/02/20 08:03:51;;;;;;;404.73;385.13;;;8.40;99.90;;;;;;4417196;32;20153;-62
2022/02/20 08:06:20;;;;;;;431.80;412.13;;;8.40;99.90;;;;;;4416334;32;20219;-64
2022/02/20 08:08:46;;;;;;;412.97;393.73;;;8.50;99.90;;;;;;4415766;32;20676;-62
2022/02/20 08:11:14;;;;;;;420.50;399.13;;;8.50;99.90;;;;;;4413345;32;20195;-62
2022/02/20 08:13:41;;;;;;;438.20;416.13;;;8.60;99.90;;;;;;4412011;32;20159;-63
2022/02/20 08:16:08;;;;;;;419.60;398.17;;;8.60;99.90;;;;;;4416083;32;20192;-63
2022/02/20 08:18:35;;;;;;;434.97;412.23;;;8.70;99.90;;;;;;4413783;32;20263;-61
2022/02/20 08:21:04;;;;;;;438.73;416.57;;;8.80;99.90;;;;;;4415270;32;20208;-64
2022/02/20 08:23:32;;;;;;;432.27;409.93;;;8.80;99.90;;;;;;4414547;32;20151;-61
2022/02/20 08:25:59;;;;;;;447.50;424.33;;;8.90;99.90;;;;;;4414915;32;20164;-62
2022/02/20 08:28:26;;;;;;;415.40;394.20;;;8.90;99.90;;;;;;4412677;32;20203;-62
2022/02/20 08:30:56;;;;;;;447.70;422.17;;;8.90;99.90;;;;;;4410175;32;20560;-60
2022/02/20 08:33:23;;;;;;;432.83;407.83;;;8.90;99.90;;;;;;4413308;32;20202;-60
2022/02/20 08:35:50;;;;;;;434.90;410.97;;;9.00;99.90;;;;;;4416645;32;20215;-62
2022/02/20 08:38:21;;;;;;;471.10;444.80;;;9.00;99.90;;;;;;4414551;32;20194;-61
2022/02/20 08:40:50;;;;;;;438.57;414.83;;;9.10;99.90;;;;;;4409995;32;20165;-62
2022/02/20 08:43:17;;;;;;;436.43;412.70;;;9.20;99.90;;;;;;4414108;32;20150;-61
2022/02/20 08:45:46;;;;;;;444.57;420.67;;;9.20;99.90;;;;;;4412352;32;20145;-61
2022/02/20 08:48:13;;;;;;;407.80;385.27;;;9.30;99.90;;;;;;4412651;32;20208;-62
2022/02/20 08:50:44;;;;;;;423.17;399.57;;;9.40;99.90;;;;;;4416895;32;20171;-62
2022/02/20 08:53:11;;;;;;;423.73;400.50;;;9.40;99.90;;;;;;4415769;32;20194;-63
2022/02/20 08:55:39;;;;;;;423.50;399.03;;;9.50;99.90;;;;;;4415472;32;20149;-62
2022/02/20 08:58:08;;;;;;;446.63;420.93;;;9.60;99.90;;;;;;4411726;32;20147;-63
2022/02/20 09:00:35;;;;;;;432.47;408.73;;;9.60;99.90;;;;;;4409260;32;20588;-63
2022/02/20 09:03:02;;;;;;;439.93;416.50;;;9.70;99.90;;;;;;4413066;32;20186;-64
2022/02/20 09:05:29;;;;;;;433.30;409.33;;;9.70;99.90;;;;;;4410070;32;20196;-62
2022/02/20 09:07:55;;;;;;;446.07;422.23;;;9.70;99.90;;;;;;4414677;32;20695;-64
2022/02/20 09:10:32;;;;;;;434.00;411.50;;;9.70;99.90;;;;;;4414615;32;20210;-64
2022/02/20 09:13:00;;;;;;;426.17;403.33;;;9.80;99.90;;;;;;4408072;32;20219;-61
2022/02/20 09:15:30;;;;;;;459.90;435.80;;;9.90;99.90;;;;;;4411464;32;20195;-62
2022/02/20 09:17:59;;;;;;;448.13;424.80;;;9.90;99.90;;;;;;4411845;32;20165;-62
2022/02/20 09:20:26;;;;;;;435.23;412.70;;;10.00;99.90;;;;;;4409216;32;20197;-61
2022/02/20 09:22:54;;;;;;;457.77;434.10;;;10.10;99.90;;;;;;4414710;32;20495;-62
2022/02/20 09:25:21;;;;;;;420.40;399.07;;;10.00;99.90;;;;;;4410465;32;20184;-64
2022/02/20 09:27:48;;;;;;;435.37;412.83;;;10.10;99.90;;;;;;4407523;32;20224;-62
2022/02/20 09:30:16;;;;;;;430.07;406.93;;;10.20;99.90;;;;;;4410732;32;20219;-63
2022/02/20 09:32:45;;;;;;;434.60;412.20;;;10.20;99.90;;;;;;4409302;32;20175;-63
2022/02/20 09:35:16;;;;;;;414.00;391.13;;;10.20;99.90;;;;;;4411171;32;20219;-64
2022/02/20 09:37:43;;;;;;;399.40;378.53;;;10.30;99.90;;;;;;4411372;32;20262;-63
2022/02/20 09:40:11;;;;;;;409.97;388.50;;;10.40;99.90;;;;;;4412836;32;20477;-64
2022/02/20 09:42:41;;;;;;;421.13;399.20;;;10.40;99.90;;;;;;4411251;32;20155;-64
2022/02/20 09:45:10;;;;;;;408.50;386.90;;;10.40;99.90;;;;;;4409306;32;20537;-64
2022/02/20 09:47:40;;;;;;;431.73;408.87;;;10.40;99.90;;;;;;4412070;32;20161;-64
2022/02/20 09:50:09;;;;;;;414.73;393.33;;;10.40;99.90;;;;;;4407134;32;20241;-63
2022/02/20 09:52:36;;;;;;;420.93;398.70;;;10.50;99.90;;;;;;4409634;32;20237;-62
2022/02/20 09:55:04;;;;;;;426.60;404.23;;;10.40;99.90;;;;;;4411153;32;20265;-63
2022/02/20 09:57:31;;;;;;;409.97;388.63;;;10.40;99.90;;;;;;4410963;32;20249;-63
2022/02/20 09:59:58;;;;;;;414.93;392.90;;;10.40;99.90;;;;;;4412949;32;20222;-62
2022/02/20 10:02:26;;;;;;;431.03;408.03;;;10.50;99.90;;;;;;4412344;32;20208;-62
2022/02/20 10:04:55;;;;;;;430.07;407.87;;;10.50;99.90;;;;;;4411354;32;20611;-64
2022/02/20 10:07:31;;;;;;;415.17;393.13;;;10.50;99.90;;;;;;4412927;32;20151;-64
2022/02/20 10:09:59;;;;;;;402.33;380.77;;;10.40;99.90;;;;;;4409245;32;20546;-63
2022/02/20 10:12:27;;;;;;;422.93;400.77;;;10.40;99.90;;;;;;4406833;32;20180;-62
2022/02/20 10:14:55;;;;;;;428.93;405.43;;;10.40;99.90;;;;;;4414572;32;20279;-64
2022/02/20 10:17:25;;;;;;;416.33;393.17;;;10.30;99.90;;;;;;4413070;32;20692;-64
2022/02/20 10:19:54;;;;;;;412.75;391.23;;;10.30;99.90;;;;;;4350817;32;1685947;-62
2022/02/20 10:22:33;;;;;;;406.73;383.20;;;10.20;99.90;;;;;;4395968;32;20144;-64
2022/02/20 10:25:08;;;;;;;388.97;367.07;;;10.10;99.90;;;;;;4394377;32;20148;-63
2022/02/20 10:27:36;;;;;;;379.80;358.93;;;10.10;99.90;;;;;;4396048;32;20175;-61
2022/02/20 10:30:18;;;;;;;366.17;346.27;;;10.00;99.90;;;;;;4397008;32;20559;-63
2022/02/20 10:32:46;;;;;;;384.50;363.20;;;9.90;99.90;;;;;;4391274;32;20146;-62
2022/02/20 10:35:18;;;;;;;383.23;362.13;;;9.90;99.90;;;;;;4393974;32;20210;-64
2022/02/20 10:37:46;;;;;;;361.37;341.80;;;9.80;99.90;;;;;;4394716;32;20234;-63
2022/02/20 10:40:27;;;;;;;377.03;355.93;;;9.80;99.90;;;;;;4392616;32;20245;-63
2022/02/20 10:42:56;;;;;;;360.40;339.77;;;9.80;99.90;;;;;;4396085;32;20153;-62
2022/02/20 10:45:25;;;;;;;377.37;356.60;;;9.80;99.90;;;;;;4391753;32;20213;-62
2022/02/20 10:47:52;;;;;;;391.40;369.23;;;9.80;99.90;;;;;;4395625;32;20193;-63
2022/02/20 10:50:21;;;;;;;388.73;366.90;;;9.80;99.90;;;;;;4393622;32;20570;-63
2022/02/20 10:53:08;;;;;;;390.40;368.63;;;9.80;99.90;;;;;;4393271;32;20168;-62
2022/02/20 10:55:37;;;;;;;390.93;370.10;;;9.70;99.90;;;;;;4391993;32;20244;-63
2022/02/20 10:58:16;;;;;;;382.93;360.90;;;9.60;99.90;;;;;;4395287;32;20598;-63
2022/02/20 11:00:50;;;;;;;389.37;369.53;;;9.60;99.90;;;;;;4392738;32;20182;-64
2022/02/20 11:03:18;;;;;;;391.30;369.50;;;9.60;99.90;;;;;;4393711;32;20152;-62
2022/02/20 11:05:44;;;;;;;405.03;383.63;;;9.60;99.90;;;;;;4392695;32;20688;-61
2022/02/20 11:08:20;;;;;;;427.23;403.80;;;9.70;99.90;;;;;;4391954;32;20175;-63
2022/02/20 11:10:49;;;;;;;402.30;380.57;;;9.70;99.90;;;;;;4393332;32;20239;-62
2022/02/20 11:13:18;;;;;;;404.77;381.80;;;9.70;99.90;;;;;;4391135;32;20159;-63
2022/02/20 11:15:46;;;;;;;410.97;389.30;;;9.70;99.90;;;;;;4392221;32;20195;-62
2022/02/20 11:18:19;;;;;;;413.90;391.37;;;9.60;99.90;;;;;;4391619;32;20147;-64
2022/02/20 11:20:47;;;;;;;425.57;403.30;;;9.60;99.90;;;;;;4396166;32;20179;-63
2022/02/20 11:23:22;;;;;;;430.17;407.43;;;9.60;99.90;;;;;;4391578;32;20217;-63
2022/02/20 11:25:52;;;;;;;412.50;390.23;;;9.60;99.90;;;;;;4399012;32;20148;-63
2022/02/20 11:28:19;;;;;;;417.27;393.83;;;9.50;99.90;;;;;;4396629;32;20164;-62
2022/02/20 11:30:46;;;;;;;430.33;407.33;;;9.50;99.90;;;;;;4394532;32;20211;-63
2022/02/20 11:33:14;;;;;;;416.37;394.07;;;9.50;99.90;;;;;;4396689;32;20229;-65
2022/02/20 11:35:43;;;;;;;424.50;401.43;;;9.50;99.90;;;;;;4394854;32;20158;-62
2022/02/20 11:38:13;;;;;;;416.40;393.40;;;9.50;99.90;;;;;;4396912;32;20224;-62
2022/02/20 11:40:59;;;;;;;402.90;382.00;;;9.50;99.90;;;;;;4394922;32;20556;-62
2022/02/20 11:43:44;;;;;;;420.77;398.80;;;9.50;99.90;;;;;;4396583;32;20137;-63
2022/02/20 11:46:15;;;;;;;401.27;379.87;;;9.50;99.90;;;;;;4391770;32;20147;-62
2022/02/20 11:49:29;;;;;;;415.90;393.00;;;9.50;99.90;;;;;;4395543;32;20158;-63
2022/02/20 11:51:58;;;;;;;408.50;385.70;;;9.50;99.90;;;;;;4397588;32;20200;-63
2022/02/20 11:54:26;;;;;;;399.77;378.70;;;9.50;99.90;;;;;;4396363;32;20144;-64
2022/02/20 11:57:23;;;;;;;443.80;420.47;;;9.50;99.90;;;;;;4396563;32;20290;-63
2022/02/20 12:00:13;;;;;;;412.70;389.07;;;9.50;99.90;;;;;;4394996;32;20204;-64
2022/02/20 12:03:02;;;;;;;416.57;393.63;;;9.50;99.90;;;;;;4395186;32;20136;-63
2022/02/20 12:05:29;;;;;;;411.47;388.83;;;9.50;99.90;;;;;;4400849;32;20166;-63
2022/02/20 12:07:56;;;;;;;407.70;386.90;;;9.50;99.90;;;;;;4394714;32;20219;-62
2022/02/20 12:10:34;;;;;;;412.83;390.83;;;9.50;99.90;;;;;;4399906;32;20596;-63
2022/02/20 12:13:30;;;;;;;402.93;379.90;;;9.50;99.90;;;;;;4398534;32;20510;-64
2022/02/20 12:15:58;;;;;;;417.03;393.57;;;9.50;99.90;;;;;;4397220;32;20546;-63
2022/02/20 12:18:30;;;;;;;413.13;390.47;;;9.60;99.90;;;;;;4397815;32;20144;-63
2022/02/20 12:21:15;;;;;;;422.43;399.33;;;9.50;99.90;;;;;;4396530;32;20988;-63
2022/02/20 12:23:49;;;;;;;411.40;389.47;;;9.50;99.90;;;;;;4399679;32;20153;-66
2022/02/20 12:26:46;;;;;;;414.73;391.90;;;9.50;99.90;;;;;;4400173;32;20166;-63
2022/02/20 12:29:19;;;;;;;415.07;392.33;;;9.50;99.90;;;;;;4394390;32;20215;-62